sensor_id;sensor_type;location;lat;lon;timestamp;P1;durP1;ratioP1;P2;durP2;ratioP2
4174;SDS011;2101;48.290;14.382;2022-10-19T00:01:51;20.73;;;5.30;;
4174;SDS011;2101;48.290;14.382;2022-10-19T00:04:17;21.50;;;5.40;;
4174;SDS011;2101;48.290;14.382;2022-10-19T00:06:43;21.07;;;5.47;;
4174;SDS011;2101;48.290;14.382;2022-10-19T00:09:11;17.90;;;4.43;;
4174;SDS011;2101;48.290;14.382;2022-10-19T00:11:39;21.60;;;5.60;;
4174;SDS011;2101;48.290;14.382;2022-10-19T00:14:05;25.40;;;4.27;;
4174;SDS011;2101;48.290;14.382;2022-10-19T00:16:33;21.93;;;4.40;;
4174;SDS011;2101;48.290;14.382;2022-10-19T00:19:00;18.27;;;3.63;;
4174;SDS011;2101;48.290;14.382;2022-10-19T00:21:27;26.77;;;3.23;;
4174;SDS011;2101;48.290;14.382;2022-10-19T00:23:53;18.30;;;3.23;;
4174;SDS011;2101;48.290;14.382;2022-10-19T00:26:19;23.53;;;4.27;;
4174;SDS011;2101;48.290;14.382;2022-10-19T00:28:46;17.43;;;3.40;;
4174;SDS011;2101;48.290;14.382;2022-10-19T00:31:13;15.23;;;2.37;;
4174;SDS011;2101;48.290;14.382;2022-10-19T00:33:40;17.60;;;2.07;;
4174;SDS011;2101;48.290;14.382;2022-10-19T00:36:13;20.50;;;1.90;;
4174;SDS011;2101;48.290;14.382;2022-10-19T00:38:40;16.03;;;1.70;;
4174;SDS011;2101;48.290;14.382;2022-10-19T00:41:06;22.73;;;1.77;;
4174;SDS011;2101;48.290;14.382;2022-10-19T00:43:48;14.33;;;1.50;;
4174;SDS011;2101;48.290;14.382;2022-10-19T00:46:15;15.33;;;1.73;;
4174;SDS011;2101;48.290;14.382;2022-10-19T00:48:41;16.90;;;1.30;;
4174;SDS011;2101;48.290;14.382;2022-10-19T00:51:07;16.47;;;1.60;;
4174;SDS011;2101;48.290;14.382;2022-10-19T00:53:33;15.00;;;1.47;;
4174;SDS011;2101;48.290;14.382;2022-10-19T00:56:01;15.03;;;1.50;;
4174;SDS011;2101;48.290;14.382;2022-10-19T00:58:28;14.70;;;1.40;;
4174;SDS011;2101;48.290;14.382;2022-10-19T01:00:55;14.73;;;1.97;;
4174;SDS011;2101;48.290;14.382;2022-10-19T01:03:25;13.80;;;1.10;;
4174;SDS011;2101;48.290;14.382;2022-10-19T01:05:51;13.70;;;0.97;;
4174;SDS011;2101;48.290;14.382;2022-10-19T01:08:17;14.20;;;1.43;;
4174;SDS011;2101;48.290;14.382;2022-10-19T01:10:51;13.00;;;1.20;;
4174;SDS011;2101;48.290;14.382;2022-10-19T01:13:37;13.90;;;1.33;;
4174;SDS011;2101;48.290;14.382;2022-10-19T01:18:57;13.57;;;1.40;;
4174;SDS011;2101;48.290;14.382;2022-10-19T01:21:34;13.07;;;1.20;;
4174;SDS011;2101;48.290;14.382;2022-10-19T01:27:01;13.60;;;1.30;;
4174;SDS011;2101;48.290;14.382;2022-10-19T01:32:18;15.03;;;1.00;;
4174;SDS011;2101;48.290;14.382;2022-10-19T01:34:50;13.50;;;1.00;;
4174;SDS011;2101;48.290;14.382;2022-10-19T01:41:01;13.83;;;1.07;;
4174;SDS011;2101;48.290;14.382;2022-10-19T01:45:57;14.00;;;1.50;;
4174;SDS011;2101;48.290;14.382;2022-10-19T01:48:29;12.70;;;1.03;;
4174;SDS011;2101;48.290;14.382;2022-10-19T01:51:13;13.13;;;1.10;;
4174;SDS011;2101;48.290;14.382;2022-10-19T01:53:45;13.10;;;1.13;;
4174;SDS011;2101;48.290;14.382;2022-10-19T01:56:12;15.53;;;1.20;;
4174;SDS011;2101;48.290;14.382;2022-10-19T01:58:39;17.53;;;1.20;;
4174;SDS011;2101;48.290;14.382;2022-10-19T02:01:07;14.50;;;1.20;;
4174;SDS011;2101;48.290;14.382;2022-10-19T02:03:34;14.50;;;1.30;;
4174;SDS011;2101;48.290;14.382;2022-10-19T02:06:02;13.07;;;1.10;;
4174;SDS011;2101;48.290;14.382;2022-10-19T02:08:51;14.27;;;1.20;;
4174;SDS011;2101;48.290;14.382;2022-10-19T02:11:16;12.90;;;1.17;;
4174;SDS011;2101;48.290;14.382;2022-10-19T02:13:43;13.93;;;1.20;;
4174;SDS011;2101;48.290;14.382;2022-10-19T02:16:12;13.10;;;1.03;;
4174;SDS011;2101;48.290;14.382;2022-10-19T02:18:40;13.13;;;1.27;;
4174;SDS011;2101;48.290;14.382;2022-10-19T02:21:09;14.73;;;1.33;;
4174;SDS011;2101;48.290;14.382;2022-10-19T02:23:35;14.00;;;1.30;;
4174;SDS011;2101;48.290;14.382;2022-10-19T02:26:02;13.23;;;1.10;;
4174;SDS011;2101;48.290;14.382;2022-10-19T02:28:28;13.40;;;1.30;;
4174;SDS011;2101;48.290;14.382;2022-10-19T02:30:55;17.20;;;1.17;;
4174;SDS011;2101;48.290;14.382;2022-10-19T02:33:21;13.17;;;1.20;;
4174;SDS011;2101;48.290;14.382;2022-10-19T02:35:48;21.57;;;1.20;;
4174;SDS011;2101;48.290;14.382;2022-10-19T02:38:15;13.30;;;1.30;;
4174;SDS011;2101;48.290;14.382;2022-10-19T02:40:44;14.57;;;1.23;;
4174;SDS011;2101;48.290;14.382;2022-10-19T02:43:13;13.03;;;1.07;;
4174;SDS011;2101;48.290;14.382;2022-10-19T02:45:45;14.00;;;1.10;;
4174;SDS011;2101;48.290;14.382;2022-10-19T02:48:16;12.70;;;1.00;;
4174;SDS011;2101;48.290;14.382;2022-10-19T02:50:43;27.23;;;1.87;;
4174;SDS011;2101;48.290;14.382;2022-10-19T02:53:11;13.67;;;1.40;;
4174;SDS011;2101;48.290;14.382;2022-10-19T02:55:37;57.50;;;2.00;;
4174;SDS011;2101;48.290;14.382;2022-10-19T02:58:04;14.17;;;1.40;;
4174;SDS011;2101;48.290;14.382;2022-10-19T03:00:30;20.53;;;1.60;;
4174;SDS011;2101;48.290;14.382;2022-10-19T03:02:56;13.60;;;1.50;;
4174;SDS011;2101;48.290;14.382;2022-10-19T03:05:22;13.10;;;1.23;;
4174;SDS011;2101;48.290;14.382;2022-10-19T03:07:48;14.70;;;1.70;;
4174;SDS011;2101;48.290;14.382;2022-10-19T03:10:14;13.67;;;1.23;;
4174;SDS011;2101;48.290;14.382;2022-10-19T03:12:40;15.40;;;1.30;;
4174;SDS011;2101;48.290;14.382;2022-10-19T03:15:06;13.07;;;1.10;;
4174;SDS011;2101;48.290;14.382;2022-10-19T03:17:33;13.97;;;1.40;;
4174;SDS011;2101;48.290;14.382;2022-10-19T03:19:59;13.27;;;1.07;;
4174;SDS011;2101;48.290;14.382;2022-10-19T03:22:25;13.70;;;1.20;;
4174;SDS011;2101;48.290;14.382;2022-10-19T03:24:51;13.47;;;1.20;;
4174;SDS011;2101;48.290;14.382;2022-10-19T03:27:17;14.07;;;1.20;;
4174;SDS011;2101;48.290;14.382;2022-10-19T03:29:43;13.30;;;1.10;;
4174;SDS011;2101;48.290;14.382;2022-10-19T03:32:10;13.30;;;1.17;;
4174;SDS011;2101;48.290;14.382;2022-10-19T03:34:36;14.53;;;1.33;;
4174;SDS011;2101;48.290;14.382;2022-10-19T03:37:02;13.17;;;1.10;;
4174;SDS011;2101;48.290;14.382;2022-10-19T03:39:28;12.80;;;0.97;;
4174;SDS011;2101;48.290;14.382;2022-10-19T03:41:54;13.77;;;1.40;;
4174;SDS011;2101;48.290;14.382;2022-10-19T03:44:20;13.30;;;1.07;;
4174;SDS011;2101;48.290;14.382;2022-10-19T03:46:46;13.20;;;1.17;;
4174;SDS011;2101;48.290;14.382;2022-10-19T03:49:12;14.23;;;1.40;;
4174;SDS011;2101;48.290;14.382;2022-10-19T03:51:38;13.47;;;1.20;;
4174;SDS011;2101;48.290;14.382;2022-10-19T03:54:05;15.33;;;1.57;;
4174;SDS011;2101;48.290;14.382;2022-10-19T03:56:33;13.97;;;1.70;;
4174;SDS011;2101;48.290;14.382;2022-10-19T03:59:00;14.10;;;1.67;;
4174;SDS011;2101;48.290;14.382;2022-10-19T04:01:30;15.30;;;1.30;;
4174;SDS011;2101;48.290;14.382;2022-10-19T04:03:57;13.40;;;1.13;;
4174;SDS011;2101;48.290;14.382;2022-10-19T04:06:26;14.97;;;1.60;;
4174;SDS011;2101;48.290;14.382;2022-10-19T04:08:53;20.80;;;1.40;;
4174;SDS011;2101;48.290;14.382;2022-10-19T04:11:20;13.50;;;1.10;;
4174;SDS011;2101;48.290;14.382;2022-10-19T04:13:50;15.27;;;1.50;;
4174;SDS011;2101;48.290;14.382;2022-10-19T04:16:17;16.30;;;1.40;;
4174;SDS011;2101;48.290;14.382;2022-10-19T04:18:43;13.67;;;1.13;;
4174;SDS011;2101;48.290;14.382;2022-10-19T04:21:18;13.80;;;1.47;;
4174;SDS011;2101;48.290;14.382;2022-10-19T04:23:45;15.10;;;1.70;;
4174;SDS011;2101;48.290;14.382;2022-10-19T04:26:11;13.47;;;1.30;;
4174;SDS011;2101;48.290;14.382;2022-10-19T04:28:37;18.93;;;1.77;;
4174;SDS011;2101;48.290;14.382;2022-10-19T04:31:04;17.33;;;2.50;;
4174;SDS011;2101;48.290;14.382;2022-10-19T04:33:30;15.23;;;2.23;;
4174;SDS011;2101;48.290;14.382;2022-10-19T04:36:03;18.50;;;1.80;;
4174;SDS011;2101;48.290;14.382;2022-10-19T04:38:30;18.53;;;1.87;;
4174;SDS011;2101;48.290;14.382;2022-10-19T04:41:01;16.73;;;2.67;;
4174;SDS011;2101;48.290;14.382;2022-10-19T04:43:27;26.87;;;2.23;;
4174;SDS011;2101;48.290;14.382;2022-10-19T04:45:53;32.13;;;3.23;;
4174;SDS011;2101;48.290;14.382;2022-10-19T04:48:20;21.10;;;3.73;;
4174;SDS011;2101;48.290;14.382;2022-10-19T04:50:46;23.80;;;4.10;;
4174;SDS011;2101;48.290;14.382;2022-10-19T04:53:12;17.07;;;3.40;;
4174;SDS011;2101;48.290;14.382;2022-10-19T04:55:41;17.80;;;3.50;;
4174;SDS011;2101;48.290;14.382;2022-10-19T04:58:07;17.70;;;3.50;;
4174;SDS011;2101;48.290;14.382;2022-10-19T05:00:33;21.23;;;4.03;;
4174;SDS011;2101;48.290;14.382;2022-10-19T05:02:59;20.00;;;3.90;;
4174;SDS011;2101;48.290;14.382;2022-10-19T05:05:25;19.20;;;3.70;;
4174;SDS011;2101;48.290;14.382;2022-10-19T05:07:51;18.37;;;3.27;;
4174;SDS011;2101;48.290;14.382;2022-10-19T05:10:18;26.10;;;7.20;;
4174;SDS011;2101;48.290;14.382;2022-10-19T05:12:44;25.60;;;8.33;;
4174;SDS011;2101;48.290;14.382;2022-10-19T05:15:10;24.03;;;6.97;;
4174;SDS011;2101;48.290;14.382;2022-10-19T05:17:36;27.03;;;6.60;;
4174;SDS011;2101;48.290;14.382;2022-10-19T05:20:02;29.47;;;6.67;;
4174;SDS011;2101;48.290;14.382;2022-10-19T05:22:28;21.73;;;6.30;;
4174;SDS011;2101;48.290;14.382;2022-10-19T05:24:54;19.30;;;5.00;;
4174;SDS011;2101;48.290;14.382;2022-10-19T05:27:20;22.67;;;5.70;;
4174;SDS011;2101;48.290;14.382;2022-10-19T05:29:46;23.07;;;5.70;;
4174;SDS011;2101;48.290;14.382;2022-10-19T05:32:13;20.20;;;5.00;;
4174;SDS011;2101;48.290;14.382;2022-10-19T05:34:39;21.17;;;4.67;;
4174;SDS011;2101;48.290;14.382;2022-10-19T05:37:05;19.07;;;4.30;;
4174;SDS011;2101;48.290;14.382;2022-10-19T05:39:31;19.30;;;5.10;;
4174;SDS011;2101;48.290;14.382;2022-10-19T05:41:58;45.10;;;5.10;;
4174;SDS011;2101;48.290;14.382;2022-10-19T05:44:24;29.67;;;5.93;;
4174;SDS011;2101;48.290;14.382;2022-10-19T05:46:50;23.60;;;6.30;;
4174;SDS011;2101;48.290;14.382;2022-10-19T05:49:17;22.80;;;3.07;;
4174;SDS011;2101;48.290;14.382;2022-10-19T05:51:44;20.27;;;2.67;;
4174;SDS011;2101;48.290;14.382;2022-10-19T05:54:11;18.33;;;3.40;;
4174;SDS011;2101;48.290;14.382;2022-10-19T05:56:38;19.30;;;4.23;;
4174;SDS011;2101;48.290;14.382;2022-10-19T05:59:05;19.70;;;3.87;;
4174;SDS011;2101;48.290;14.382;2022-10-19T06:01:32;18.90;;;3.90;;
4174;SDS011;2101;48.290;14.382;2022-10-19T06:03:59;19.20;;;3.57;;
4174;SDS011;2101;48.290;14.382;2022-10-19T06:06:25;20.17;;;4.53;;
4174;SDS011;2101;48.290;14.382;2022-10-19T06:08:52;22.17;;;5.17;;
4174;SDS011;2101;48.290;14.382;2022-10-19T06:11:20;20.83;;;4.63;;
4174;SDS011;2101;48.290;14.382;2022-10-19T06:13:47;34.17;;;8.03;;
4174;SDS011;2101;48.290;14.382;2022-10-19T06:16:14;27.60;;;6.03;;
4174;SDS011;2101;48.290;14.382;2022-10-19T06:18:41;32.57;;;6.67;;
4174;SDS011;2101;48.290;14.382;2022-10-19T06:21:14;25.23;;;7.00;;
4174;SDS011;2101;48.290;14.382;2022-10-19T06:23:40;26.63;;;6.57;;
4174;SDS011;2101;48.290;14.382;2022-10-19T06:26:08;35.90;;;7.60;;
4174;SDS011;2101;48.290;14.382;2022-10-19T06:28:35;31.13;;;7.70;;
4174;SDS011;2101;48.290;14.382;2022-10-19T06:31:01;31.23;;;6.83;;
4174;SDS011;2101;48.290;14.382;2022-10-19T06:33:27;32.43;;;6.23;;
4174;SDS011;2101;48.290;14.382;2022-10-19T06:36:16;34.13;;;6.70;;
4174;SDS011;2101;48.290;14.382;2022-10-19T06:38:43;28.60;;;6.63;;
4174;SDS011;2101;48.290;14.382;2022-10-19T06:41:09;27.03;;;6.50;;
4174;SDS011;2101;48.290;14.382;2022-10-19T06:43:36;28.37;;;5.80;;
4174;SDS011;2101;48.290;14.382;2022-10-19T06:46:03;24.43;;;6.87;;
4174;SDS011;2101;48.290;14.382;2022-10-19T06:48:29;30.53;;;7.20;;
4174;SDS011;2101;48.290;14.382;2022-10-19T06:50:59;26.97;;;6.83;;
4174;SDS011;2101;48.290;14.382;2022-10-19T06:53:25;41.20;;;9.07;;
4174;SDS011;2101;48.290;14.382;2022-10-19T06:55:55;31.03;;;8.93;;
4174;SDS011;2101;48.290;14.382;2022-10-19T06:58:22;34.60;;;7.60;;
4174;SDS011;2101;48.290;14.382;2022-10-19T07:00:56;28.63;;;7.40;;
4174;SDS011;2101;48.290;14.382;2022-10-19T07:03:22;31.40;;;8.70;;
4174;SDS011;2101;48.290;14.382;2022-10-19T07:05:55;28.43;;;8.57;;
4174;SDS011;2101;48.290;14.382;2022-10-19T07:08:21;30.73;;;8.67;;
4174;SDS011;2101;48.290;14.382;2022-10-19T07:10:48;30.37;;;8.27;;
4174;SDS011;2101;48.290;14.382;2022-10-19T07:13:15;33.67;;;8.70;;
4174;SDS011;2101;48.290;14.382;2022-10-19T07:15:41;32.00;;;9.80;;
4174;SDS011;2101;48.290;14.382;2022-10-19T07:18:07;26.40;;;8.10;;
4174;SDS011;2101;48.290;14.382;2022-10-19T07:20:33;29.53;;;9.27;;
4174;SDS011;2101;48.290;14.382;2022-10-19T07:22:59;62.67;;;9.13;;
4174;SDS011;2101;48.290;14.382;2022-10-19T07:25:26;27.10;;;6.40;;
4174;SDS011;2101;48.290;14.382;2022-10-19T07:27:54;22.23;;;4.07;;
4174;SDS011;2101;48.290;14.382;2022-10-19T07:30:20;20.30;;;3.63;;
4174;SDS011;2101;48.290;14.382;2022-10-19T07:32:46;26.97;;;3.00;;
4174;SDS011;2101;48.290;14.382;2022-10-19T07:35:12;24.50;;;3.50;;
4174;SDS011;2101;48.290;14.382;2022-10-19T07:37:38;20.53;;;3.40;;
4174;SDS011;2101;48.290;14.382;2022-10-19T07:40:05;24.20;;;5.30;;
4174;SDS011;2101;48.290;14.382;2022-10-19T07:42:31;28.00;;;6.37;;
4174;SDS011;2101;48.290;14.382;2022-10-19T07:44:57;23.47;;;6.30;;
4174;SDS011;2101;48.290;14.382;2022-10-19T07:47:23;44.23;;;7.00;;
4174;SDS011;2101;48.290;14.382;2022-10-19T07:49:49;34.07;;;8.67;;
4174;SDS011;2101;48.290;14.382;2022-10-19T07:52:15;44.90;;;10.10;;
4174;SDS011;2101;48.290;14.382;2022-10-19T07:54:42;38.07;;;9.27;;
4174;SDS011;2101;48.290;14.382;2022-10-19T07:57:09;29.90;;;7.50;;
4174;SDS011;2101;48.290;14.382;2022-10-19T07:59:36;28.60;;;7.70;;
4174;SDS011;2101;48.290;14.382;2022-10-19T08:02:02;38.67;;;8.10;;
4174;SDS011;2101;48.290;14.382;2022-10-19T08:04:28;36.87;;;8.80;;
4174;SDS011;2101;48.290;14.382;2022-10-19T08:06:55;32.10;;;8.33;;
4174;SDS011;2101;48.290;14.382;2022-10-19T08:09:21;28.93;;;8.37;;
4174;SDS011;2101;48.290;14.382;2022-10-19T08:11:47;37.73;;;9.33;;
4174;SDS011;2101;48.290;14.382;2022-10-19T08:14:13;36.63;;;9.60;;
4174;SDS011;2101;48.290;14.382;2022-10-19T08:16:40;40.90;;;10.30;;
4174;SDS011;2101;48.290;14.382;2022-10-19T08:19:12;42.83;;;9.90;;
4174;SDS011;2101;48.290;14.382;2022-10-19T08:21:39;32.97;;;9.03;;
4174;SDS011;2101;48.290;14.382;2022-10-19T08:24:05;27.77;;;7.80;;
4174;SDS011;2101;48.290;14.382;2022-10-19T08:26:32;29.87;;;9.10;;
4174;SDS011;2101;48.290;14.382;2022-10-19T08:29:03;35.20;;;10.00;;
4174;SDS011;2101;48.290;14.382;2022-10-19T08:31:29;34.60;;;11.20;;
4174;SDS011;2101;48.290;14.382;2022-10-19T08:33:56;28.77;;;9.27;;
4174;SDS011;2101;48.290;14.382;2022-10-19T08:36:22;31.83;;;8.83;;
4174;SDS011;2101;48.290;14.382;2022-10-19T08:38:48;37.03;;;9.23;;
4174;SDS011;2101;48.290;14.382;2022-10-19T08:41:23;30.83;;;9.70;;
4174;SDS011;2101;48.290;14.382;2022-10-19T08:43:55;43.90;;;9.40;;
4174;SDS011;2101;48.290;14.382;2022-10-19T08:46:48;43.30;;;8.77;;
4174;SDS011;2101;48.290;14.382;2022-10-19T08:49:11;24.90;;;7.47;;
4174;SDS011;2101;48.290;14.382;2022-10-19T08:51:40;28.30;;;6.77;;
4174;SDS011;2101;48.290;14.382;2022-10-19T08:54:10;35.03;;;8.53;;
4174;SDS011;2101;48.290;14.382;2022-10-19T08:56:39;26.77;;;7.30;;
4174;SDS011;2101;48.290;14.382;2022-10-19T09:01:58;29.73;;;7.00;;
4174;SDS011;2101;48.290;14.382;2022-10-19T09:04:32;31.13;;;7.60;;
4174;SDS011;2101;48.290;14.382;2022-10-19T09:09:47;34.53;;;7.60;;
4174;SDS011;2101;48.290;14.382;2022-10-19T09:12:16;26.00;;;6.83;;
4174;SDS011;2101;48.290;14.382;2022-10-19T09:14:46;31.07;;;8.23;;
4174;SDS011;2101;48.290;14.382;2022-10-19T09:17:16;24.60;;;7.17;;
4174;SDS011;2101;48.290;14.382;2022-10-19T09:19:42;32.87;;;7.53;;
4174;SDS011;2101;48.290;14.382;2022-10-19T09:22:17;27.30;;;7.00;;
4174;SDS011;2101;48.290;14.382;2022-10-19T09:24:51;25.00;;;6.50;;
4174;SDS011;2101;48.290;14.382;2022-10-19T09:27:21;31.37;;;9.03;;
4174;SDS011;2101;48.290;14.382;2022-10-19T09:29:58;21.23;;;6.00;;
4174;SDS011;2101;48.290;14.382;2022-10-19T09:34:55;22.37;;;5.60;;
4174;SDS011;2101;48.290;14.382;2022-10-19T09:37:25;22.77;;;6.27;;
4174;SDS011;2101;48.290;14.382;2022-10-19T09:39:51;22.40;;;5.53;;
4174;SDS011;2101;48.290;14.382;2022-10-19T09:44:47;31.20;;;6.00;;
4174;SDS011;2101;48.290;14.382;2022-10-19T09:50:06;20.70;;;4.83;;
4174;SDS011;2101;48.290;14.382;2022-10-19T09:52:34;20.97;;;5.10;;
4174;SDS011;2101;48.290;14.382;2022-10-19T09:55:02;20.07;;;4.77;;
4174;SDS011;2101;48.290;14.382;2022-10-19T09:57:29;20.27;;;4.87;;
4174;SDS011;2101;48.290;14.382;2022-10-19T09:59:55;22.93;;;4.67;;
4174;SDS011;2101;48.290;14.382;2022-10-19T10:02:29;23.10;;;4.73;;
4174;SDS011;2101;48.290;14.382;2022-10-19T10:05:02;18.50;;;4.17;;
4174;SDS011;2101;48.290;14.382;2022-10-19T10:07:31;25.90;;;4.20;;
4174;SDS011;2101;48.290;14.382;2022-10-19T10:09:58;21.63;;;4.10;;
4174;SDS011;2101;48.290;14.382;2022-10-19T10:12:24;19.10;;;4.00;;
4174;SDS011;2101;48.290;14.382;2022-10-19T10:14:51;19.40;;;4.00;;
4174;SDS011;2101;48.290;14.382;2022-10-19T10:17:20;20.53;;;3.80;;
4174;SDS011;2101;48.290;14.382;2022-10-19T10:19:49;20.33;;;4.30;;
4174;SDS011;2101;48.290;14.382;2022-10-19T10:22:26;20.30;;;4.90;;
4174;SDS011;2101;48.290;14.382;2022-10-19T10:24:53;21.83;;;4.27;;
4174;SDS011;2101;48.290;14.382;2022-10-19T10:27:38;18.53;;;3.87;;
4174;SDS011;2101;48.290;14.382;2022-10-19T10:30:08;29.57;;;4.67;;
4174;SDS011;2101;48.290;14.382;2022-10-19T10:32:35;18.60;;;4.00;;
4174;SDS011;2101;48.290;14.382;2022-10-19T10:35:05;19.93;;;4.43;;
4174;SDS011;2101;48.290;14.382;2022-10-19T10:39:57;19.63;;;4.63;;
4174;SDS011;2101;48.290;14.382;2022-10-19T10:42:35;19.40;;;4.80;;
4174;SDS011;2101;48.290;14.382;2022-10-19T10:45:03;24.37;;;5.90;;
4174;SDS011;2101;48.290;14.382;2022-10-19T10:47:29;20.57;;;5.03;;
4174;SDS011;2101;48.290;14.382;2022-10-19T10:49:59;27.90;;;5.33;;
4174;SDS011;2101;48.290;14.382;2022-10-19T10:52:27;24.17;;;5.80;;
4174;SDS011;2101;48.290;14.382;2022-10-19T10:57:24;25.27;;;6.27;;
4174;SDS011;2101;48.290;14.382;2022-10-19T10:59:56;21.97;;;5.53;;
4174;SDS011;2101;48.290;14.382;2022-10-19T11:04:56;28.20;;;6.07;;
4174;SDS011;2101;48.290;14.382;2022-10-19T11:07:25;23.00;;;5.00;;
4174;SDS011;2101;48.290;14.382;2022-10-19T11:09:58;21.20;;;5.60;;
4174;SDS011;2101;48.290;14.382;2022-10-19T11:13:13;23.93;;;6.27;;
4174;SDS011;2101;48.290;14.382;2022-10-19T11:16:14;20.90;;;5.17;;
4174;SDS011;2101;48.290;14.382;2022-10-19T11:18:13;27.63;;;6.60;;
4174;SDS011;2101;48.290;14.382;2022-10-19T11:20:44;26.13;;;6.17;;
4174;SDS011;2101;48.290;14.382;2022-10-19T11:23:15;21.57;;;5.20;;
4174;SDS011;2101;48.290;14.382;2022-10-19T11:30:54;21.67;;;4.90;;
4174;SDS011;2101;48.290;14.382;2022-10-19T11:33:46;26.17;;;5.27;;
4174;SDS011;2101;48.290;14.382;2022-10-19T11:36:27;19.27;;;4.50;;
4174;SDS011;2101;48.290;14.382;2022-10-19T11:44:12;18.03;;;4.07;;
4174;SDS011;2101;48.290;14.382;2022-10-19T11:51:59;16.13;;;3.30;;
4174;SDS011;2101;48.290;14.382;2022-10-19T11:59:55;16.07;;;2.87;;
4174;SDS011;2101;48.290;14.382;2022-10-19T12:02:43;17.83;;;3.00;;
4174;SDS011;2101;48.290;14.382;2022-10-19T12:05:36;18.30;;;3.40;;
4174;SDS011;2101;48.290;14.382;2022-10-19T12:08:13;17.50;;;3.30;;
4174;SDS011;2101;48.290;14.382;2022-10-19T12:10:49;25.07;;;4.00;;
4174;SDS011;2101;48.290;14.382;2022-10-19T12:13:19;21.60;;;4.70;;
4174;SDS011;2101;48.290;14.382;2022-10-19T12:15:49;19.90;;;3.40;;
4174;SDS011;2101;48.290;14.382;2022-10-19T12:20:58;16.40;;;3.10;;
4174;SDS011;2101;48.290;14.382;2022-10-19T12:23:27;19.20;;;3.63;;
4174;SDS011;2101;48.290;14.382;2022-10-19T12:25:56;18.37;;;3.53;;
4174;SDS011;2101;48.290;14.382;2022-10-19T12:28:26;17.47;;;3.00;;
4174;SDS011;2101;48.290;14.382;2022-10-19T12:30:54;16.40;;;3.10;;
4174;SDS011;2101;48.290;14.382;2022-10-19T12:33:38;18.50;;;3.50;;
4174;SDS011;2101;48.290;14.382;2022-10-19T12:41:31;25.20;;;3.30;;
4174;SDS011;2101;48.290;14.382;2022-10-19T12:44:14;17.07;;;2.93;;
4174;SDS011;2101;48.290;14.382;2022-10-19T12:46:45;15.27;;;2.20;;
4174;SDS011;2101;48.290;14.382;2022-10-19T12:51:50;15.50;;;2.50;;
4174;SDS011;2101;48.290;14.382;2022-10-19T12:54:20;15.50;;;2.63;;
4174;SDS011;2101;48.290;14.382;2022-10-19T12:56:47;16.30;;;2.97;;
4174;SDS011;2101;48.290;14.382;2022-10-19T13:01:47;15.10;;;2.83;;
4174;SDS011;2101;48.290;14.382;2022-10-19T13:14:40;16.10;;;2.27;;
4174;SDS011;2101;48.290;14.382;2022-10-19T13:17:07;14.30;;;1.83;;
4174;SDS011;2101;48.290;14.382;2022-10-19T13:19:33;15.70;;;2.30;;
4174;SDS011;2101;48.290;14.382;2022-10-19T13:29:37;14.90;;;2.17;;
4174;SDS011;2101;48.290;14.382;2022-10-19T13:34:49;15.00;;;1.90;;
4174;SDS011;2101;48.290;14.382;2022-10-19T13:37:15;15.90;;;2.50;;
4174;SDS011;2101;48.290;14.382;2022-10-19T13:39:42;15.90;;;2.33;;
4174;SDS011;2101;48.290;14.382;2022-10-19T13:42:22;15.30;;;1.97;;
4174;SDS011;2101;48.290;14.382;2022-10-19T13:44:48;16.90;;;2.43;;
4174;SDS011;2101;48.290;14.382;2022-10-19T13:47:38;14.90;;;2.33;;
4174;SDS011;2101;48.290;14.382;2022-10-19T13:50:13;16.00;;;2.03;;
4174;SDS011;2101;48.290;14.382;2022-10-19T13:52:44;14.77;;;2.13;;
4174;SDS011;2101;48.290;14.382;2022-10-19T14:10:51;15.70;;;2.57;;
4174;SDS011;2101;48.290;14.382;2022-10-19T14:13:23;16.00;;;2.50;;
4174;SDS011;2101;48.290;14.382;2022-10-19T14:15:50;15.43;;;2.30;;
4174;SDS011;2101;48.290;14.382;2022-10-19T14:18:27;15.47;;;2.30;;
4174;SDS011;2101;48.290;14.382;2022-10-19T14:20:54;13.90;;;1.80;;
4174;SDS011;2101;48.290;14.382;2022-10-19T14:23:25;16.67;;;2.73;;
4174;SDS011;2101;48.290;14.382;2022-10-19T14:28:37;15.70;;;2.70;;
4174;SDS011;2101;48.290;14.382;2022-10-19T14:31:04;17.07;;;3.13;;
4174;SDS011;2101;48.290;14.382;2022-10-19T14:33:32;16.03;;;2.80;;
4174;SDS011;2101;48.290;14.382;2022-10-19T14:35:59;15.70;;;2.50;;
4174;SDS011;2101;48.290;14.382;2022-10-19T14:40:54;16.83;;;3.00;;
4174;SDS011;2101;48.290;14.382;2022-10-19T14:43:22;17.30;;;3.37;;
4174;SDS011;2101;48.290;14.382;2022-10-19T14:48:33;16.67;;;3.17;;
4174;SDS011;2101;48.290;14.382;2022-10-19T14:51:01;22.53;;;2.80;;
4174;SDS011;2101;48.290;14.382;2022-10-19T14:53:39;16.00;;;2.90;;
4174;SDS011;2101;48.290;14.382;2022-10-19T14:56:07;17.83;;;3.33;;
4174;SDS011;2101;48.290;14.382;2022-10-19T14:58:54;17.53;;;3.13;;
4174;SDS011;2101;48.290;14.382;2022-10-19T15:01:20;17.53;;;2.70;;
4174;SDS011;2101;48.290;14.382;2022-10-19T15:03:47;21.70;;;2.83;;
4174;SDS011;2101;48.290;14.382;2022-10-19T15:06:19;16.40;;;3.10;;
4174;SDS011;2101;48.290;14.382;2022-10-19T15:08:48;16.83;;;3.50;;
4174;SDS011;2101;48.290;14.382;2022-10-19T15:14:07;16.43;;;3.20;;
4174;SDS011;2101;48.290;14.382;2022-10-19T15:19:39;17.90;;;3.47;;
4174;SDS011;2101;48.290;14.382;2022-10-19T15:22:05;21.63;;;3.03;;
4174;SDS011;2101;48.290;14.382;2022-10-19T15:24:32;18.00;;;3.23;;
4174;SDS011;2101;48.290;14.382;2022-10-19T15:27:07;15.87;;;2.60;;
4174;SDS011;2101;48.290;14.382;2022-10-19T15:29:33;17.07;;;3.30;;
4174;SDS011;2101;48.290;14.382;2022-10-19T15:32:15;16.30;;;2.97;;
4174;SDS011;2101;48.290;14.382;2022-10-19T15:34:41;18.30;;;3.47;;
4174;SDS011;2101;48.290;14.382;2022-10-19T15:37:12;17.73;;;3.33;;
4174;SDS011;2101;48.290;14.382;2022-10-19T15:39:40;19.20;;;3.80;;
4174;SDS011;2101;48.290;14.382;2022-10-19T15:44:51;28.63;;;3.70;;
4174;SDS011;2101;48.290;14.382;2022-10-19T15:47:19;19.33;;;3.63;;
4174;SDS011;2101;48.290;14.382;2022-10-19T15:49:53;17.93;;;3.80;;
4174;SDS011;2101;48.290;14.382;2022-10-19T15:52:27;19.40;;;4.07;;
4174;SDS011;2101;48.290;14.382;2022-10-19T15:54:54;17.83;;;4.17;;
4174;SDS011;2101;48.290;14.382;2022-10-19T15:59:47;21.57;;;4.57;;
4174;SDS011;2101;48.290;14.382;2022-10-19T16:02:13;19.37;;;4.17;;
4174;SDS011;2101;48.290;14.382;2022-10-19T16:04:39;20.37;;;4.37;;
4174;SDS011;2101;48.290;14.382;2022-10-19T16:07:05;22.07;;;5.47;;
4174;SDS011;2101;48.290;14.382;2022-10-19T16:09:31;25.63;;;5.77;;
4174;SDS011;2101;48.290;14.382;2022-10-19T16:11:58;24.40;;;5.00;;
4174;SDS011;2101;48.290;14.382;2022-10-19T16:14:24;18.37;;;4.10;;
4174;SDS011;2101;48.290;14.382;2022-10-19T16:16:52;21.00;;;4.17;;
4174;SDS011;2101;48.290;14.382;2022-10-19T16:19:19;19.90;;;3.80;;
4174;SDS011;2101;48.290;14.382;2022-10-19T16:21:45;19.27;;;4.20;;
4174;SDS011;2101;48.290;14.382;2022-10-19T16:24:11;18.60;;;4.40;;
4174;SDS011;2101;48.290;14.382;2022-10-19T16:26:37;21.27;;;5.43;;
4174;SDS011;2101;48.290;14.382;2022-10-19T16:29:03;20.30;;;5.50;;
4174;SDS011;2101;48.290;14.382;2022-10-19T16:31:29;22.87;;;5.20;;
4174;SDS011;2101;48.290;14.382;2022-10-19T16:33:56;20.90;;;5.37;;
4174;SDS011;2101;48.290;14.382;2022-10-19T16:36:22;20.03;;;4.83;;
4174;SDS011;2101;48.290;14.382;2022-10-19T16:38:48;21.57;;;5.93;;
4174;SDS011;2101;48.290;14.382;2022-10-19T16:41:14;20.67;;;4.97;;
4174;SDS011;2101;48.290;14.382;2022-10-19T16:43:40;23.17;;;5.27;;
4174;SDS011;2101;48.290;14.382;2022-10-19T16:46:06;21.27;;;5.53;;
4174;SDS011;2101;48.290;14.382;2022-10-19T16:48:32;33.60;;;5.73;;
4174;SDS011;2101;48.290;14.382;2022-10-19T16:53:31;22.90;;;5.23;;
4174;SDS011;2101;48.290;14.382;2022-10-19T16:56:04;21.10;;;5.27;;
4174;SDS011;2101;48.290;14.382;2022-10-19T16:58:30;20.97;;;6.50;;
4174;SDS011;2101;48.290;14.382;2022-10-19T17:00:57;20.90;;;5.07;;
4174;SDS011;2101;48.290;14.382;2022-10-19T17:03:28;31.80;;;5.40;;
4174;SDS011;2101;48.290;14.382;2022-10-19T17:05:55;19.90;;;5.33;;